createdAt,value
2023-09-03T00:01:49.739Z,10.10
2023-09-03T00:04:48.359Z,10.40
2023-09-03T00:07:33.400Z,10.25
2023-09-03T00:10:25.358Z,10.27
2023-09-03T00:13:16.380Z,9.80
2023-09-03T00:16:01.373Z,10.40
2023-09-03T00:18:52.390Z,9.65
2023-09-03T00:21:43.375Z,10.18
2023-09-03T00:24:28.413Z,9.77
2023-09-03T00:27:20.382Z,9.63
2023-09-03T00:30:05.696Z,10.03
2023-09-03T00:32:57.416Z,9.95
2023-09-03T00:35:44.832Z,10.23
2023-09-03T00:38:38.383Z,10.40
2023-09-03T00:41:23.695Z,10.70
2023-09-03T00:44:15.370Z,10.30
2023-09-03T00:47:00.511Z,10.85
2023-09-03T00:49:52.378Z,11.18
2023-09-03T00:52:38.257Z,10.73
2023-09-03T00:55:32.668Z,10.00
2023-09-03T00:58:26.388Z,10.40
2023-09-03T01:01:18.421Z,10.27
2023-09-03T01:04:10.437Z,11.70
2023-09-03T01:06:55.585Z,11.80
2023-09-03T01:09:48.382Z,11.02
2023-09-03T01:12:41.580Z,10.17
2023-09-03T01:15:37.428Z,10.75
2023-09-03T01:18:25.352Z,11.35
2023-09-03T01:21:45.381Z,11.02
2023-09-03T01:25:12.414Z,11.27
2023-09-03T01:28:26.639Z,10.90
2023-09-03T01:31:24.440Z,11.75
2023-09-03T01:34:10.465Z,11.85
2023-09-03T01:37:02.410Z,11.13
2023-09-03T01:39:47.769Z,10.93
2023-09-03T01:42:39.408Z,12.00
2023-09-03T01:45:44.414Z,11.68
2023-09-03T01:49:00.953Z,11.55
2023-09-03T01:52:05.462Z,10.35
2023-09-03T01:54:59.401Z,11.23
2023-09-03T01:57:50.085Z,11.67
2023-09-03T02:00:41.432Z,12.43
2023-09-03T02:03:34.411Z,12.75
2023-09-03T02:06:32.404Z,12.82
2023-09-03T02:09:17.674Z,11.55
2023-09-03T02:12:09.415Z,12.67
2023-09-03T02:14:54.442Z,13.10
2023-09-03T02:17:45.437Z,12.77
2023-09-03T02:20:37.408Z,12.27
2023-09-03T02:23:22.317Z,13.02
2023-09-03T02:26:15.404Z,12.43
2023-09-03T02:29:00.641Z,12.75
2023-09-03T02:31:52.415Z,13.75
2023-09-03T02:34:38.172Z,12.05
2023-09-03T02:37:29.419Z,13.27
2023-09-03T02:40:14.354Z,13.30
2023-09-03T02:43:06.425Z,13.00
2023-09-03T02:45:51.916Z,12.50
2023-09-03T02:48:43.431Z,12.23
2023-09-03T02:51:28.880Z,12.68
2023-09-03T02:54:20.415Z,11.90
2023-09-03T02:57:05.542Z,11.43
2023-09-03T02:59:57.418Z,12.27
2023-09-03T03:02:42.797Z,11.55
2023-09-03T03:05:41.434Z,12.23
2023-09-03T03:08:26.653Z,11.70
2023-09-03T03:11:23.432Z,12.20
2023-09-03T03:14:08.610Z,12.93
2023-09-03T03:17:00.425Z,13.35
2023-09-03T03:19:49.719Z,12.73
2023-09-03T03:22:41.440Z,13.07
2023-09-03T03:25:26.474Z,11.60
2023-09-03T03:28:18.907Z,11.40
2023-09-03T03:31:20.625Z,11.30
2023-09-03T03:34:12.537Z,11.98
2023-09-03T03:37:04.429Z,10.70
2023-09-03T03:39:57.428Z,10.77
2023-09-03T03:42:42.275Z,10.32
2023-09-03T03:45:34.487Z,11.00
2023-09-03T03:48:20.123Z,11.43
2023-09-03T03:51:12.475Z,10.60
2023-09-03T03:54:06.453Z,11.15
2023-09-03T03:56:51.553Z,10.88
2023-09-03T03:59:43.454Z,11.15
2023-09-03T04:02:28.673Z,10.57
2023-09-03T04:05:27.447Z,11.33
2023-09-03T04:08:12.682Z,11.88
2023-09-03T04:11:11.459Z,11.02
2023-09-03T04:13:59.298Z,11.70
2023-09-03T04:16:51.517Z,11.60
2023-09-03T04:19:36.668Z,11.33
2023-09-03T04:22:28.461Z,12.00
2023-09-03T04:25:13.679Z,12.88
2023-09-03T04:28:05.458Z,13.10
2023-09-03T04:30:57.851Z,14.30
2023-09-03T04:33:49.478Z,13.90
2023-09-03T04:36:35.101Z,12.95
2023-09-03T04:39:26.474Z,12.75
2023-09-03T04:42:18.475Z,12.35
2023-09-03T04:45:03.904Z,12.30
2023-09-03T04:47:55.486Z,11.97
2023-09-03T04:50:40.600Z,12.20
2023-09-03T04:53:32.461Z,11.70
2023-09-03T04:56:17.580Z,11.68
2023-09-03T04:59:09.481Z,12.20
2023-09-03T05:01:54.388Z,11.33
2023-09-03T05:04:53.480Z,12.43
2023-09-03T05:07:45.184Z,12.65
2023-09-03T05:10:36.649Z,13.57
2023-09-03T05:13:21.575Z,12.75
2023-09-03T05:16:13.516Z,13.03
2023-09-03T05:19:05.454Z,13.48
2023-09-03T05:21:57.470Z,13.55
2023-09-03T05:24:43.147Z,13.45
2023-09-03T05:27:38.993Z,13.80
2023-09-03T05:30:24.009Z,13.40
2023-09-03T05:33:15.505Z,14.07
2023-09-03T05:36:07.486Z,14.68
2023-09-03T05:38:58.477Z,13.60
2023-09-03T05:41:43.292Z,13.80
2023-09-03T05:44:34.490Z,12.97
2023-09-03T05:47:19.952Z,13.73
2023-09-03T05:50:11.460Z,13.15
2023-09-03T05:52:56.360Z,14.60
2023-09-03T05:55:50.470Z,13.82
2023-09-03T05:58:36.003Z,14.73
2023-09-03T06:01:27.476Z,14.07
2023-09-03T06:04:20.945Z,13.27
2023-09-03T06:07:19.493Z,15.02
2023-09-03T06:10:05.363Z,14.68
2023-09-03T06:12:56.499Z,15.77
2023-09-03T06:15:41.821Z,16.15
2023-09-03T06:18:33.629Z,17.98
2023-09-03T06:21:18.802Z,16.80
2023-09-03T06:24:10.504Z,16.83
2023-09-03T06:26:57.934Z,17.90
2023-09-03T06:29:49.507Z,18.23
2023-09-03T06:32:34.760Z,19.13
2023-09-03T06:35:26.513Z,19.38
2023-09-03T06:38:11.424Z,19.45
2023-09-03T06:41:02.496Z,19.20
2023-09-03T06:43:50.181Z,20.05
2023-09-03T06:46:41.538Z,20.35
2023-09-03T06:49:27.260Z,19.77
2023-09-03T06:52:18.515Z,19.42
2023-09-03T06:55:03.968Z,20.90
2023-09-03T06:57:55.519Z,20.67
2023-09-03T07:00:40.741Z,20.48
2023-09-03T07:03:32.611Z,20.73
2023-09-03T07:06:24.064Z,21.33
2023-09-03T07:09:18.512Z,24.67
2023-09-03T07:12:04.654Z,21.90
2023-09-03T07:14:56.569Z,23.60
2023-09-03T07:17:41.638Z,22.77
2023-09-03T07:20:32.507Z,22.63
2023-09-03T07:23:17.760Z,22.93
2023-09-03T07:26:12.515Z,24.42
2023-09-03T07:28:57.755Z,24.65
2023-09-03T07:31:51.521Z,23.05
2023-09-03T07:34:36.722Z,23.92
2023-09-03T07:37:28.516Z,23.97
2023-09-03T07:40:13.781Z,24.25
2023-09-03T07:43:05.533Z,24.58
2023-09-03T07:45:50.446Z,24.35
2023-09-03T07:48:41.549Z,25.17
2023-09-03T07:51:26.973Z,24.87
2023-09-03T07:54:18.539Z,27.55
2023-09-03T07:57:03.738Z,26.70
2023-09-03T07:59:59.525Z,25.10
2023-09-03T08:02:51.554Z,27.10
2023-09-03T08:05:43.512Z,25.77
2023-09-03T08:08:36.544Z,26.35
2023-09-03T08:11:22.269Z,26.60
2023-09-03T08:14:16.569Z,24.15
2023-09-03T08:17:07.558Z,21.17
2023-09-03T08:20:20.551Z,20.73
2023-09-03T08:23:12.545Z,20.23
2023-09-03T08:26:04.581Z,20.27
2023-09-03T08:28:52.770Z,19.83
2023-09-03T08:31:44.588Z,20.92
2023-09-03T08:34:29.593Z,20.63
2023-09-03T08:37:21.591Z,19.52
2023-09-03T08:40:07.999Z,21.52
2023-09-03T08:43:00.538Z,19.83
2023-09-03T08:45:52.413Z,19.77
2023-09-03T08:48:44.613Z,20.47
2023-09-03T08:51:32.748Z,21.10
2023-09-03T08:54:24.551Z,19.73
2023-09-03T08:57:10.440Z,20.45
2023-09-03T09:00:03.565Z,23.65
2023-09-03T09:02:49.511Z,24.23
2023-09-03T09:05:41.557Z,21.83
2023-09-03T09:08:39.554Z,22.88
2023-09-03T09:11:29.896Z,21.48
2023-09-03T09:14:37.566Z,21.55
2023-09-03T09:17:22.587Z,20.73
2023-09-03T09:20:16.628Z,21.00
2023-09-03T09:23:01.729Z,22.45
2023-09-03T09:25:53.572Z,21.58
2023-09-03T09:28:59.745Z,19.75
2023-09-03T09:31:51.567Z,20.40
2023-09-03T09:34:43.351Z,20.30
2023-09-03T09:37:47.545Z,19.65
2023-09-03T09:40:33.285Z,19.45
2023-09-03T09:43:24.734Z,20.33
2023-09-03T09:46:25.772Z,18.77
2023-09-03T09:49:17.565Z,18.65
2023-09-03T09:52:09.579Z,17.70
2023-09-03T09:54:54.723Z,17.70
2023-09-03T09:57:46.586Z,16.33
2023-09-03T10:00:44.523Z,17.17
2023-09-03T10:03:55.695Z,16.95
2023-09-03T10:06:55.590Z,15.13
2023-09-03T10:09:42.080Z,15.85
2023-09-03T10:12:33.736Z,15.63
2023-09-03T10:15:20.853Z,16.80
2023-09-03T10:18:15.594Z,15.80
2023-09-03T10:21:02.082Z,14.32
2023-09-03T10:23:56.625Z,15.32
2023-09-03T10:26:46.150Z,13.23
2023-09-03T10:29:41.570Z,12.93
2023-09-03T10:32:28.220Z,14.07
2023-09-03T10:35:20.592Z,12.93
2023-09-03T10:38:33.317Z,13.10
2023-09-03T10:41:31.583Z,12.77
2023-09-03T10:44:16.834Z,11.53
2023-09-03T10:47:08.589Z,12.25
2023-09-03T10:49:55.645Z,11.57
2023-09-03T10:52:47.594Z,11.07
2023-09-03T10:55:32.909Z,11.73
2023-09-03T10:58:29.654Z,11.37
2023-09-03T11:01:21.776Z,10.23
2023-09-03T11:04:13.633Z,9.38
2023-09-03T11:07:23.635Z,8.30
2023-09-03T11:10:27.614Z,8.80
2023-09-03T11:13:36.120Z,6.30
2023-09-03T11:16:33.030Z,7.47
2023-09-03T11:19:24.609Z,7.63
2023-09-03T11:22:09.922Z,7.32
2023-09-03T11:25:01.619Z,6.95
2023-09-03T11:27:50.235Z,5.40
2023-09-03T11:30:42.660Z,6.30
2023-09-03T11:33:29.319Z,5.78
2023-09-03T11:36:20.627Z,6.05
2023-09-03T11:39:15.078Z,5.20
2023-09-03T11:42:06.637Z,5.77
2023-09-03T11:44:51.858Z,5.80
2023-09-03T11:47:46.677Z,6.05
2023-09-03T11:50:31.958Z,5.70
2023-09-03T11:53:23.846Z,6.20
2023-09-03T11:56:19.648Z,5.30
2023-09-03T11:59:05.870Z,5.30
2023-09-03T12:01:59.649Z,4.20
2023-09-03T12:04:51.701Z,3.60
2023-09-03T12:07:50.607Z,3.42
2023-09-03T12:10:35.716Z,3.27
2023-09-03T12:13:46.632Z,3.25
2023-09-03T12:16:31.488Z,3.00
2023-09-03T12:19:22.646Z,3.30
2023-09-03T12:22:08.752Z,3.22
2023-09-03T12:25:00.630Z,2.63
2023-09-03T12:27:49.520Z,2.83
2023-09-03T12:31:10.757Z,2.50
2023-09-03T12:33:55.679Z,2.80
2023-09-03T12:37:07.641Z,3.00
2023-09-03T12:39:52.715Z,2.77
2023-09-03T12:42:44.765Z,3.15
2023-09-03T12:45:29.812Z,2.92
2023-09-03T12:48:21.653Z,2.70
2023-09-03T12:51:13.646Z,2.72
2023-09-03T12:54:04.667Z,2.50
2023-09-03T12:56:57.649Z,3.35
2023-09-03T12:59:50.630Z,2.70
2023-09-03T13:02:41.758Z,2.92
2023-09-03T13:05:32.756Z,3.15
2023-09-03T13:08:30.662Z,2.57
2023-09-03T13:11:22.643Z,3.30
2023-09-03T13:14:14.695Z,3.60
2023-09-03T13:16:59.966Z,3.80
2023-09-03T13:19:51.674Z,2.70
2023-09-03T13:22:42.662Z,2.00
2023-09-03T13:25:35.117Z,2.90
2023-09-03T13:28:26.677Z,3.00
2023-09-03T13:31:11.914Z,2.10
2023-09-03T13:34:03.670Z,2.30
2023-09-03T13:36:50.241Z,1.70
2023-09-03T13:39:42.681Z,2.35
2023-09-03T13:42:27.540Z,2.40
2023-09-03T13:45:20.674Z,2.33
2023-09-03T13:48:06.514Z,2.00
2023-09-03T13:51:02.657Z,2.10
2023-09-03T13:53:48.972Z,1.80
2023-09-03T13:56:42.600Z,2.55
2023-09-03T13:59:27.662Z,2.10
2023-09-03T14:02:21.700Z,2.50
2023-09-03T14:05:13.767Z,2.17
2023-09-03T14:08:11.690Z,2.20
2023-09-03T14:11:00.477Z,2.13
2023-09-03T14:13:54.693Z,2.38
2023-09-03T14:16:39.945Z,5.65
2023-09-03T14:19:31.691Z,2.50
2023-09-03T14:22:23.688Z,3.15
2023-09-03T14:25:14.693Z,2.47
2023-09-03T14:28:05.697Z,2.80
2023-09-03T14:30:50.691Z,3.85
2023-09-03T14:33:41.697Z,3.40
2023-09-03T14:36:26.915Z,2.60
2023-09-03T14:39:20.427Z,3.10
2023-09-03T14:42:18.300Z,2.78
2023-09-03T14:45:09.711Z,2.95
2023-09-03T14:47:54.958Z,2.40
2023-09-03T14:50:49.727Z,2.58
2023-09-03T14:53:34.814Z,2.45
2023-09-03T14:56:27.697Z,2.60
2023-09-03T14:59:12.847Z,2.53
2023-09-03T15:02:04.740Z,2.40
2023-09-03T15:04:55.713Z,2.20
2023-09-03T15:07:47.752Z,2.40
2023-09-03T15:10:41.728Z,2.58
2023-09-03T15:13:28.462Z,3.90
2023-09-03T15:16:20.728Z,3.33
2023-09-03T15:19:12.744Z,2.28
2023-09-03T15:21:57.720Z,2.65
2023-09-03T15:24:50.720Z,2.38
2023-09-03T15:27:42.721Z,2.85
2023-09-03T15:30:33.531Z,4.60
2023-09-03T15:33:25.727Z,3.00
2023-09-03T15:36:10.939Z,2.70
2023-09-03T15:39:02.724Z,2.70
2023-09-03T15:41:50.770Z,3.50
2023-09-03T15:44:42.726Z,2.50
2023-09-03T15:47:27.858Z,2.70
2023-09-03T15:50:19.749Z,2.45
2023-09-03T15:53:04.913Z,2.40
2023-09-03T15:55:56.755Z,2.85
2023-09-03T15:58:48.730Z,2.50
2023-09-03T16:01:33.875Z,2.72
2023-09-03T16:04:25.739Z,3.08
2023-09-03T16:07:24.728Z,2.88
2023-09-03T16:10:10.071Z,2.75
2023-09-03T16:13:04.725Z,2.37
2023-09-03T16:15:56.775Z,2.70
2023-09-03T16:18:47.767Z,2.50
2023-09-03T16:21:38.111Z,2.65
2023-09-03T16:24:29.750Z,2.45
2023-09-03T16:27:14.706Z,2.40
2023-09-03T16:30:05.757Z,2.60
2023-09-03T16:32:50.946Z,2.65
2023-09-03T16:35:42.756Z,2.20
2023-09-03T16:38:29.164Z,2.67
2023-09-03T16:41:20.746Z,2.70
2023-09-03T16:44:06.103Z,2.55
2023-09-03T16:46:57.798Z,5.57
2023-09-03T16:49:42.704Z,3.70
2023-09-03T16:52:34.810Z,6.32
2023-09-03T16:55:21.129Z,4.80
2023-09-03T16:58:12.765Z,3.25
2023-09-03T17:01:04.789Z,2.72
2023-09-03T17:03:53.230Z,2.70
2023-09-03T17:06:44.771Z,2.63
2023-09-03T17:09:35.884Z,2.93
2023-09-03T17:12:27.745Z,2.83
2023-09-03T17:15:12.762Z,3.35
2023-09-03T17:18:04.811Z,2.58
2023-09-03T17:20:49.985Z,3.28
2023-09-03T17:23:45.803Z,4.10
2023-09-03T17:26:30.754Z,3.30
2023-09-03T17:29:22.765Z,3.60
2023-09-03T17:32:08.090Z,3.45
2023-09-03T17:35:04.037Z,3.72
2023-09-03T17:37:58.160Z,3.50
2023-09-03T17:40:43.170Z,3.50
2023-09-03T17:43:34.789Z,3.33
2023-09-03T17:46:27.864Z,3.33
2023-09-03T17:49:12.627Z,3.40
2023-09-03T17:52:03.761Z,3.50
2023-09-03T17:54:51.779Z,3.67
2023-09-03T17:57:43.773Z,3.20
2023-09-03T18:00:35.801Z,3.08
2023-09-03T18:03:27.857Z,3.22
2023-09-03T18:06:33.793Z,2.87
2023-09-03T18:09:25.781Z,2.95
2023-09-03T18:12:16.785Z,3.20
2023-09-03T18:15:01.685Z,3.15
2023-09-03T18:17:52.810Z,4.53
2023-09-03T18:20:43.801Z,11.23
2023-09-03T18:23:28.734Z,3.88
2023-09-03T18:26:19.791Z,3.40
2023-09-03T18:29:07.233Z,2.90
2023-09-03T18:32:00.680Z,3.72
2023-09-03T18:34:45.823Z,2.83
2023-09-03T18:37:37.789Z,3.40
2023-09-03T18:40:23.018Z,3.65
2023-09-03T18:43:14.881Z,3.45
2023-09-03T18:46:00.655Z,3.78
2023-09-03T18:48:51.802Z,3.67
2023-09-03T18:51:36.967Z,3.15
2023-09-03T18:54:28.796Z,3.60
2023-09-03T18:57:15.858Z,3.70
2023-09-03T19:00:08.812Z,3.65
2023-09-03T19:02:53.752Z,3.40
2023-09-03T19:05:50.351Z,3.80
2023-09-03T19:08:42.037Z,3.88
2023-09-03T19:11:36.815Z,3.80
2023-09-03T19:14:22.033Z,3.60
2023-09-03T19:17:20.788Z,3.77
2023-09-03T19:20:08.599Z,3.70
2023-09-03T19:23:01.694Z,3.67
2023-09-03T19:26:00.970Z,3.78
2023-09-03T19:28:46.676Z,3.90
2023-09-03T19:31:38.825Z,3.73
2023-09-03T19:34:25.977Z,3.63
2023-09-03T19:37:17.821Z,3.97
2023-09-03T19:40:09.827Z,3.65
2023-09-03T19:42:54.843Z,3.60
2023-09-03T19:45:48.853Z,3.67
2023-09-03T19:48:44.653Z,3.60
2023-09-03T19:51:29.988Z,3.63
2023-09-03T19:54:21.818Z,3.88
2023-09-03T19:57:06.742Z,3.60
2023-09-03T20:00:00.841Z,3.50
2023-09-03T20:02:51.312Z,3.40
2023-09-03T20:05:46.829Z,3.53
2023-09-03T20:08:38.956Z,3.25
2023-09-03T20:11:30.885Z,3.45
2023-09-03T20:14:15.801Z,3.50
2023-09-03T20:17:07.839Z,3.03
2023-09-03T20:19:56.358Z,3.25
2023-09-03T20:22:50.883Z,3.45
2023-09-03T20:25:37.723Z,3.45
2023-09-03T20:28:43.571Z,3.13
2023-09-03T20:31:36.894Z,3.33
2023-09-03T20:34:23.279Z,3.60
2023-09-03T20:37:14.859Z,4.45
2023-09-03T20:39:59.757Z,4.20
2023-09-03T20:42:51.844Z,4.07
2023-09-03T20:45:37.058Z,3.90
2023-09-03T20:48:28.871Z,3.75
2023-09-03T20:51:13.868Z,3.70
2023-09-03T20:54:09.720Z,3.50
2023-09-03T20:56:55.010Z,3.30
2023-09-03T20:59:48.842Z,3.47
2023-09-03T21:02:39.624Z,3.17
2023-09-03T21:05:31.842Z,3.40
2023-09-03T21:08:25.031Z,4.15
2023-09-03T21:11:16.849Z,3.17
2023-09-03T21:14:03.603Z,3.30
2023-09-03T21:16:54.892Z,3.45
2023-09-03T21:19:39.806Z,3.45
2023-09-03T21:22:30.849Z,3.45
2023-09-03T21:25:24.862Z,3.80
2023-09-03T21:28:09.892Z,3.60
2023-09-03T21:31:00.851Z,4.00
2023-09-03T21:33:49.862Z,3.90
2023-09-03T21:36:41.852Z,3.60
2023-09-03T21:39:26.826Z,4.20
2023-09-03T21:42:18.857Z,4.00
2023-09-03T21:45:10.862Z,3.90
2023-09-03T21:48:03.927Z,4.10
2023-09-03T21:51:02.631Z,3.60
2023-09-03T21:54:04.863Z,4.30
2023-09-03T21:56:58.125Z,3.53
2023-09-03T21:59:49.856Z,3.60
2023-09-03T22:02:49.947Z,3.40
2023-09-03T22:05:40.903Z,3.72
2023-09-03T22:08:38.873Z,3.50
2023-09-03T22:11:24.210Z,3.72
2023-09-03T22:14:15.887Z,4.03
2023-09-03T22:17:05.341Z,3.50
2023-09-03T22:19:58.882Z,3.88
2023-09-03T22:22:48.901Z,3.60
2023-09-03T22:25:40.891Z,3.88
2023-09-03T22:28:32.868Z,3.85
2023-09-03T22:31:26.995Z,3.58
2023-09-03T22:34:11.757Z,3.97
2023-09-03T22:37:03.869Z,3.50
2023-09-03T22:39:48.921Z,3.80
2023-09-03T22:42:40.919Z,3.45
2023-09-03T22:45:26.148Z,3.88
2023-09-03T22:48:17.901Z,4.25
2023-09-03T22:51:03.353Z,3.60
2023-09-03T22:53:54.885Z,4.07
2023-09-03T22:56:40.250Z,3.50
2023-09-03T22:59:31.884Z,3.75
2023-09-03T23:02:17.278Z,3.70
2023-09-03T23:05:08.877Z,3.50
2023-09-03T23:08:02.176Z,3.75
2023-09-03T23:10:53.878Z,4.05
2023-09-03T23:13:41.839Z,4.00
2023-09-03T23:16:41.819Z,3.85
2023-09-03T23:19:26.970Z,3.97
2023-09-03T23:22:21.906Z,4.03
2023-09-03T23:25:10.001Z,3.55
2023-09-03T23:28:04.898Z,3.65
2023-09-03T23:30:50.099Z,4.03
2023-09-03T23:33:41.881Z,3.73
2023-09-03T23:36:27.104Z,3.65
2023-09-03T23:39:21.903Z,3.80
2023-09-03T23:42:07.219Z,3.70
2023-09-03T23:45:06.906Z,3.80
2023-09-03T23:47:52.169Z,3.77
2023-09-03T23:50:43.876Z,4.05
2023-09-03T23:53:30.491Z,3.80
2023-09-03T23:56:24.909Z,4.07
2023-09-03T23:59:09.802Z,4.40
